Time;durP1;ratioP1;P1;durP2;ratioP2;P2;SDS_P1;SDS_P2;PMS_P1;PMS_P2;Temp;Humidity;BMP_temperature;BMP_pressure;BME280_temperature;BME280_humidity;BME280_pressure;Samples;Min_cycle;Max_cycle;Signal;HPM_P1;HPM_P2
2023/12/14 00:00:22;;;;;;;15.00;8.67;;;5.30;99.90;;;;;;5012793;28;20415;-91
2023/12/14 00:02:47;;;;;;;14.45;8.25;;;5.50;99.90;;;;;;5013696;28;20415;-93
2023/12/14 00:05:13;;;;;;;12.65;8.90;;;5.50;99.90;;;;;;5013775;28;20464;-92
2023/12/14 00:07:39;;;;;;;13.40;8.70;;;5.40;99.90;;;;;;5013492;28;20494;-91
2023/12/14 00:10:05;;;;;;;12.53;8.67;;;5.50;99.90;;;;;;5013267;28;20414;-91
2023/12/14 00:12:31;;;;;;;13.93;8.32;;;5.40;99.90;;;;;;5012265;28;20431;-91
2023/12/14 00:14:57;;;;;;;14.48;9.27;;;5.40;99.90;;;;;;5013405;28;20441;-92
2023/12/14 00:17:22;;;;;;;16.85;9.18;;;5.40;99.90;;;;;;5011966;28;21111;-90
2023/12/14 00:19:48;;;;;;;13.63;8.37;;;5.40;99.90;;;;;;5013929;28;20809;-90
2023/12/14 00:22:14;;;;;;;15.20;9.43;;;5.40;99.90;;;;;;5012265;28;20774;-90
2023/12/14 00:24:39;;;;;;;15.05;8.95;;;5.40;99.90;;;;;;5013324;28;20494;-92
2023/12/14 00:27:05;;;;;;;13.43;8.50;;;5.40;99.90;;;;;;5013109;28;20465;-91
2023/12/14 00:29:30;;;;;;;14.98;8.48;;;5.30;99.90;;;;;;5012341;28;20454;-91
2023/12/14 00:31:56;;;;;;;12.48;7.93;;;5.40;99.90;;;;;;5013100;28;20423;-90
2023/12/14 00:34:22;;;;;;;13.67;9.00;;;5.40;99.90;;;;;;5011916;28;20435;-93
2023/12/14 00:36:47;;;;;;;12.97;7.77;;;5.40;99.90;;;;;;5013847;28;20973;-92
2023/12/14 00:39:13;;;;;;;11.57;8.05;;;5.50;99.90;;;;;;5011714;28;21112;-92
2023/12/14 00:41:39;;;;;;;11.52;7.18;;;5.30;99.90;;;;;;5012982;28;20415;-92
2023/12/14 00:44:04;;;;;;;12.33;8.10;;;5.70;99.90;;;;;;5012418;28;20426;-92
2023/12/14 00:46:30;;;;;;;10.57;8.83;;;5.40;99.90;;;;;;5011503;28;20423;-91
2023/12/14 00:48:56;;;;;;;13.57;8.43;;;5.40;99.90;;;;;;5012761;28;20414;-92
2023/12/14 00:51:21;;;;;;;10.82;7.65;;;5.50;99.90;;;;;;5011876;28;20415;-91
2023/12/14 00:53:47;;;;;;;8.83;7.10;;;5.50;99.90;;;;;;5012987;28;20438;-92
2023/12/14 00:56:13;;;;;;;12.35;9.15;;;5.40;99.90;;;;;;5011892;28;20413;-92
2023/12/14 00:58:38;;;;;;;9.90;8.02;;;5.60;99.90;;;;;;5012773;28;20411;-93
2023/12/14 01:01:04;;;;;;;8.68;7.13;;;5.40;99.90;;;;;;5011726;28;20403;-92
2023/12/14 01:03:30;;;;;;;9.03;7.60;;;5.30;99.90;;;;;;5012331;28;20966;-92
2023/12/14 01:05:55;;;;;;;9.03;7.43;;;5.40;99.90;;;;;;5012315;28;20813;-93
2023/12/14 01:08:21;;;;;;;10.00;7.57;;;5.30;99.90;;;;;;5012007;28;20415;-93
2023/12/14 01:10:47;;;;;;;9.57;6.80;;;5.30;99.90;;;;;;5012724;28;20407;-92
2023/12/14 01:13:12;;;;;;;8.20;6.50;;;5.40;99.90;;;;;;5011505;28;20510;-91
2023/12/14 01:15:38;;;;;;;8.93;6.30;;;5.20;99.90;;;;;;5012347;28;20497;-92
2023/12/14 01:18:05;;;;;;;9.25;6.70;;;5.50;99.90;;;;;;5011299;28;20462;-93
2023/12/14 01:20:33;;;;;;;9.13;7.50;;;5.20;99.90;;;;;;5012738;28;20419;-92
2023/12/14 01:22:59;;;;;;;8.98;6.60;;;5.40;99.90;;;;;;5011501;28;20395;-93
2023/12/14 01:25:27;;;;;;;8.88;6.85;;;5.40;99.90;;;;;;5011593;28;20465;-94
2023/12/14 01:27:53;;;;;;;9.93;7.90;;;5.20;99.90;;;;;;5012114;28;20411;-93
2023/12/14 01:30:19;;;;;;;10.93;7.23;;;5.30;99.90;;;;;;5011049;28;20417;-93
2023/12/14 01:32:44;;;;;;;9.15;7.68;;;5.20;99.90;;;;;;5012227;28;20439;-91
2023/12/14 01:35:10;;;;;;;9.57;7.00;;;5.20;99.90;;;;;;5010636;28;20407;-92
2023/12/14 01:37:35;;;;;;;8.97;7.87;;;5.10;99.90;;;;;;5012103;28;20407;-92
2023/12/14 01:40:01;;;;;;;10.25;7.80;;;5.20;99.90;;;;;;5011170;28;20407;-91
2023/12/14 01:42:27;;;;;;;8.90;6.95;;;5.20;99.90;;;;;;5011418;28;20415;-93
2023/12/14 01:44:53;;;;;;;9.82;8.02;;;5.20;99.90;;;;;;5011562;28;20423;-93
2023/12/14 01:47:19;;;;;;;9.18;7.47;;;5.20;99.90;;;;;;5010850;28;20485;-92
2023/12/14 01:49:44;;;;;;;13.07;8.10;;;5.30;99.90;;;;;;5011790;28;20445;-92
2023/12/14 01:52:10;;;;;;;10.73;9.17;;;5.40;99.90;;;;;;5010491;28;20777;-91
2023/12/14 01:54:36;;;;;;;12.05;8.80;;;5.20;99.90;;;;;;5012061;28;20871;-90
2023/12/14 01:57:01;;;;;;;11.57;9.50;;;5.30;99.90;;;;;;5025580;28;20730;-93
2023/12/14 01:59:27;;;;;;;12.33;8.80;;;5.40;99.90;;;;;;5031318;28;20421;-92
2023/12/14 02:01:56;;;;;;;12.50;8.87;;;5.20;99.90;;;;;;5030666;28;20482;-92
2023/12/14 02:04:23;;;;;;;11.13;8.90;;;5.20;99.90;;;;;;5030472;28;20421;-91
2023/12/14 02:06:48;;;;;;;9.93;8.35;;;5.20;99.90;;;;;;5031132;28;20437;-92
2023/12/14 02:09:14;;;;;;;14.98;10.63;;;5.20;99.90;;;;;;5030668;28;20437;-91
2023/12/14 02:11:40;;;;;;;12.38;9.77;;;5.30;99.90;;;;;;5031069;28;20405;-92
2023/12/14 02:14:08;;;;;;;11.70;8.53;;;5.30;99.90;;;;;;5029854;28;20432;-91
2023/12/14 02:16:34;;;;;;;12.05;9.93;;;5.30;99.90;;;;;;5031116;28;20405;-92
2023/12/14 02:18:59;;;;;;;15.13;10.10;;;5.20;99.90;;;;;;5030241;28;20420;-91
2023/12/14 02:21:25;;;;;;;13.90;9.20;;;5.20;99.90;;;;;;5030504;28;20492;-92
2023/12/14 02:23:51;;;;;;;11.65;8.48;;;5.30;99.90;;;;;;5031012;28;20492;-92
2023/12/14 02:26:16;;;;;;;13.80;10.00;;;5.30;99.90;;;;;;5029825;28;20412;-90
2023/12/14 02:28:42;;;;;;;13.43;10.02;;;5.20;99.90;;;;;;5030552;28;20405;-92
2023/12/14 02:31:08;;;;;;;16.57;9.90;;;5.30;99.90;;;;;;5029564;28;20776;-91
2023/12/14 02:33:33;;;;;;;13.80;9.77;;;5.20;99.90;;;;;;5030719;28;20433;-91
2023/12/14 02:36:00;;;;;;;13.07;9.35;;;5.20;99.90;;;;;;5029483;28;20414;-91
2023/12/14 02:38:26;;;;;;;14.48;8.57;;;5.20;99.90;;;;;;5030784;28;20761;-91
2023/12/14 02:40:52;;;;;;;13.55;9.65;;;5.10;99.90;;;;;;5030451;28;20459;-90
2023/12/14 02:43:18;;;;;;;14.43;9.13;;;5.30;99.90;;;;;;5030119;28;20420;-92
2023/12/14 02:45:45;;;;;;;13.38;9.25;;;5.60;99.90;;;;;;5030365;28;20885;-91
2023/12/14 02:48:11;;;;;;;15.50;9.13;;;5.20;99.90;;;;;;5029779;28;20617;-92
2023/12/14 02:50:37;;;;;;;15.48;9.18;;;5.30;99.90;;;;;;5025954;28;20414;-91
2023/12/14 02:53:02;;;;;;;15.38;9.02;;;5.40;99.90;;;;;;5009325;28;20437;-91
2023/12/14 02:55:28;;;;;;;18.27;9.20;;;5.40;99.90;;;;;;5010897;28;20506;-91
2023/12/14 02:57:54;;;;;;;17.20;9.60;;;5.40;99.90;;;;;;5009453;28;20413;-91
2023/12/14 03:00:19;;;;;;;18.13;9.10;;;5.30;99.90;;;;;;5009953;28;20403;-92
2023/12/14 03:02:45;;;;;;;17.67;9.57;;;5.30;99.90;;;;;;5010565;28;20407;-91
2023/12/14 03:05:11;;;;;;;17.08;10.55;;;5.30;99.90;;;;;;5009360;28;20430;-92
2023/12/14 03:07:37;;;;;;;17.37;9.97;;;5.30;99.90;;;;;;5010560;28;20414;-91
2023/12/14 03:10:03;;;;;;;18.90;10.33;;;5.30;99.90;;;;;;5012643;28;20427;-93
2023/12/14 03:12:29;;;;;;;19.48;11.30;;;5.30;99.90;;;;;;5014888;28;20791;-91
2023/12/14 03:14:55;;;;;;;19.05;10.75;;;5.30;99.90;;;;;;5013575;28;20411;-91
2023/12/14 03:17:21;;;;;;;19.13;11.70;;;5.30;99.90;;;;;;5014337;28;20422;-90
2023/12/14 03:19:46;;;;;;;19.10;11.30;;;5.40;99.90;;;;;;5014602;28;20407;-91
2023/12/14 03:22:12;;;;;;;19.93;11.47;;;5.50;99.90;;;;;;5014654;28;20411;-90
2023/12/14 03:24:38;;;;;;;22.35;12.07;;;5.30;99.90;;;;;;5014279;28;20407;-92
2023/12/14 03:27:04;;;;;;;21.35;12.20;;;5.30;99.90;;;;;;5013721;28;20410;-91
2023/12/14 03:29:31;;;;;;;22.00;11.57;;;5.30;99.90;;;;;;5014438;28;20415;-90
2023/12/14 03:31:57;;;;;;;22.60;11.75;;;5.30;99.90;;;;;;5013441;28;20413;-91
2023/12/14 03:34:24;;;;;;;22.05;11.90;;;5.20;99.90;;;;;;5014444;28;20938;-92
2023/12/14 03:36:50;;;;;;;20.50;11.75;;;5.10;99.90;;;;;;5013430;28;20399;-91
2023/12/14 03:39:18;;;;;;;18.33;12.32;;;5.70;99.90;;;;;;5013619;28;20418;-90
2023/12/14 03:41:44;;;;;;;19.42;11.63;;;5.50;99.90;;;;;;5014137;28;20403;-91
2023/12/14 03:44:10;;;;;;;21.90;11.68;;;5.30;99.90;;;;;;5013479;28;20415;-91
2023/12/14 03:46:36;;;;;;;19.35;11.48;;;5.60;99.90;;;;;;5014579;28;20456;-91
2023/12/14 03:49:03;;;;;;;19.45;12.02;;;5.40;99.90;;;;;;5012488;28;20407;-91
2023/12/14 03:51:29;;;;;;;23.10;11.73;;;5.00;99.90;;;;;;5014022;28;20399;-92
2023/12/14 03:53:54;;;;;;;18.83;11.27;;;5.40;99.90;;;;;;5012960;28;20446;-92
2023/12/14 03:56:20;;;;;;;22.57;11.63;;;5.40;99.90;;;;;;5013984;28;20458;-91
2023/12/14 03:58:46;;;;;;;19.17;11.40;;;5.30;99.90;;;;;;5013689;28;20976;-91
2023/12/14 04:01:19;;;;;;;23.33;12.18;;;5.30;99.90;;;;;;5013439;28;20411;-93
2023/12/14 04:03:45;;;;;;;20.20;12.18;;;5.30;99.90;;;;;;5013526;28;20425;-91
2023/12/14 04:06:12;;;;;;;17.60;10.87;;;5.30;99.90;;;;;;5012527;28;20415;-92
2023/12/14 04:08:37;;;;;;;21.10;11.35;;;5.20;99.90;;;;;;5013925;28;20486;-90
2023/12/14 04:11:03;;;;;;;20.65;12.00;;;5.30;99.90;;;;;;5012535;28;20498;-90
2023/12/14 04:13:29;;;;;;;19.08;11.60;;;5.30;99.90;;;;;;5013903;28;20961;-92
2023/12/14 04:15:54;;;;;;;17.73;11.07;;;5.60;99.90;;;;;;5012787;28;20410;-92
2023/12/14 04:18:20;;;;;;;20.67;11.27;;;5.50;99.90;;;;;;5012838;28;20415;-92
2023/12/14 04:20:46;;;;;;;21.33;11.55;;;5.40;99.90;;;;;;5013211;28;20529;-91
2023/12/14 04:23:11;;;;;;;19.05;11.38;;;5.30;99.90;;;;;;5012359;28;20418;-92
2023/12/14 04:25:37;;;;;;;19.43;11.50;;;5.40;99.90;;;;;;5013816;28;20498;-90
2023/12/14 04:28:03;;;;;;;21.17;11.40;;;5.40;99.90;;;;;;5011781;28;20470;-91
2023/12/14 04:30:28;;;;;;;19.95;11.38;;;5.30;99.90;;;;;;5013746;28;20418;-90
2023/12/14 04:32:54;;;;;;;19.05;11.52;;;5.50;99.90;;;;;;5012418;28;20435;-90
2023/12/14 04:35:22;;;;;;;22.83;12.67;;;5.50;99.90;;;;;;5013096;28;20785;-92
2023/12/14 04:37:48;;;;;;;20.40;11.18;;;5.50;99.90;;;;;;5012647;28;20461;-91
2023/12/14 04:40:14;;;;;;;19.08;12.15;;;5.40;99.90;;;;;;5012347;28;20412;-91
2023/12/14 04:42:40;;;;;;;19.55;12.20;;;5.40;99.90;;;;;;5013129;28;20879;-91
2023/12/14 04:45:06;;;;;;;22.03;12.63;;;5.80;99.90;;;;;;5012085;28;20419;-92
2023/12/14 04:47:31;;;;;;;22.45;12.48;;;5.40;99.90;;;;;;5013080;28;20399;-92
2023/12/14 04:49:57;;;;;;;20.43;12.50;;;5.50;99.90;;;;;;5011662;28;20828;-93
2023/12/14 04:52:23;;;;;;;19.47;11.90;;;5.30;99.90;;;;;;5013027;28;20427;-90
2023/12/14 04:54:48;;;;;;;19.98;12.02;;;5.30;99.90;;;;;;5012344;28;20939;-91
2023/12/14 04:57:15;;;;;;;22.27;12.95;;;5.80;99.90;;;;;;5012013;28;20418;-92
2023/12/14 04:59:43;;;;;;;21.98;12.70;;;5.30;99.90;;;;;;5012560;28;20403;-91
2023/12/14 05:02:09;;;;;;;21.15;12.63;;;5.30;99.90;;;;;;5011757;28;20415;-91
2023/12/14 05:04:35;;;;;;;23.70;13.27;;;5.30;99.90;;;;;;5012571;28;20430;-93
2023/12/14 05:07:00;;;;;;;23.97;13.07;;;5.30;99.90;;;;;;5011350;28;20921;-93
2023/12/14 05:09:26;;;;;;;21.57;12.60;;;5.20;99.90;;;;;;5013079;28;20415;-93
2023/12/14 05:11:52;;;;;;;24.02;12.48;;;5.60;99.90;;;;;;5011957;28;20471;-91
2023/12/14 05:14:18;;;;;;;23.13;13.85;;;5.30;99.90;;;;;;5012387;28;20439;-93
2023/12/14 05:16:44;;;;;;;19.88;12.63;;;5.40;99.90;;;;;;5015215;28;20414;-92
2023/12/14 05:19:10;;;;;;;21.05;13.38;;;5.40;99.90;;;;;;5014804;28;20471;-92
2023/12/14 05:21:35;;;;;;;21.50;12.95;;;5.30;99.90;;;;;;5015631;28;20436;-91
2023/12/14 05:24:01;;;;;;;23.17;13.90;;;5.40;99.90;;;;;;5014363;28;20408;-93
2023/12/14 05:26:27;;;;;;;24.63;13.10;;;5.10;99.90;;;;;;5015742;28;20445;-92
2023/12/14 05:28:53;;;;;;;23.60;13.13;;;5.30;99.90;;;;;;4995256;28;20407;-91
2023/12/14 05:31:19;;;;;;;26.50;14.15;;;5.30;99.90;;;;;;4995094;28;20479;-90
2023/12/14 05:33:45;;;;;;;20.90;13.20;;;5.40;99.90;;;;;;4995419;28;20582;-91
2023/12/14 05:36:10;;;;;;;22.27;13.07;;;5.70;99.90;;;;;;4995229;28;20419;-93
2023/12/14 05:38:38;;;;;;;18.92;12.77;;;5.20;99.90;;;;;;4995570;28;20550;-90
2023/12/14 05:41:04;;;;;;;21.80;13.02;;;5.50;99.90;;;;;;4994189;28;20414;-91
2023/12/14 05:43:29;;;;;;;26.10;13.70;;;5.20;99.90;;;;;;4995701;28;20403;-91
2023/12/14 05:45:55;;;;;;;23.37;13.17;;;5.60;99.90;;;;;;4994740;28;20427;-90
2023/12/14 05:48:21;;;;;;;20.85;13.60;;;5.20;99.90;;;;;;4995820;28;20450;-91
2023/12/14 05:50:46;;;;;;;24.17;13.30;;;5.10;99.90;;;;;;4996890;28;20414;-91
2023/12/14 05:53:12;;;;;;;21.37;12.63;;;5.20;99.90;;;;;;5014354;28;20436;-92
2023/12/14 05:55:39;;;;;;;23.67;13.47;;;5.10;99.90;;;;;;5015036;28;20402;-92
2023/12/14 05:58:05;;;;;;;21.80;13.10;;;5.50;99.90;;;;;;5014010;28;20459;-91
2023/12/14 06:00:33;;;;;;;26.50;13.57;;;5.10;99.90;;;;;;5014779;28;20409;-90
2023/12/14 06:02:58;;;;;;;20.80;12.73;;;5.30;99.90;;;;;;5013500;28;20436;-91
2023/12/14 06:05:24;;;;;;;23.15;13.20;;;5.10;99.90;;;;;;5015476;28;20421;-92
2023/12/14 06:07:50;;;;;;;22.00;13.10;;;5.20;99.90;;;;;;5013986;28;20445;-94
2023/12/14 06:10:15;;;;;;;20.43;12.90;;;5.10;99.90;;;;;;5014514;28;20406;-91
2023/12/14 06:12:41;;;;;;;21.10;13.43;;;5.10;99.90;;;;;;5014170;28;20421;-91
2023/12/14 06:15:07;;;;;;;22.55;13.10;;;5.00;99.90;;;;;;5010421;28;20418;-91
2023/12/14 06:17:33;;;;;;;21.83;12.82;;;5.10;99.90;;;;;;5011265;28;20408;-91
2023/12/14 06:19:59;;;;;;;22.02;13.23;;;5.10;99.90;;;;;;5010572;28;20740;-92
2023/12/14 06:22:26;;;;;;;22.98;12.68;;;5.10;99.90;;;;;;5010599;28;20945;-91
2023/12/14 06:24:52;;;;;;;25.08;13.68;;;5.10;99.90;;;;;;5010266;28;20403;-91
2023/12/14 06:27:17;;;;;;;23.80;13.27;;;5.40;99.90;;;;;;5011351;28;20407;-91
2023/12/14 06:29:43;;;;;;;22.67;12.93;;;5.30;99.90;;;;;;5008425;28;20466;-91
2023/12/14 06:32:09;;;;;;;22.60;13.63;;;5.10;99.90;;;;;;5010002;28;20926;-91
2023/12/14 06:34:34;;;;;;;20.83;12.70;;;5.10;99.90;;;;;;5010865;28;20430;-90
2023/12/14 06:37:01;;;;;;;24.40;14.33;;;5.10;99.90;;;;;;5009876;28;20817;-91
2023/12/14 06:39:27;;;;;;;25.23;14.18;;;5.30;99.90;;;;;;5011491;28;20415;-91
2023/12/14 06:41:54;;;;;;;24.10;13.70;;;5.10;99.90;;;;;;5009229;28;20506;-91
2023/12/14 06:44:19;;;;;;;24.05;13.77;;;5.10;99.90;;;;;;5010418;28;20430;-92
2023/12/14 06:46:45;;;;;;;25.83;14.07;;;5.10;99.90;;;;;;5010120;28;20419;-91
2023/12/14 06:49:10;;;;;;;25.23;13.70;;;5.10;99.90;;;;;;5010781;28;20422;-91
2023/12/14 06:51:36;;;;;;;25.53;13.20;;;5.20;99.90;;;;;;5010355;28;20504;-90
2023/12/14 06:54:02;;;;;;;20.48;11.82;;;5.20;99.90;;;;;;5010266;28;20419;-92
2023/12/14 06:56:27;;;;;;;25.17;13.50;;;5.30;99.90;;;;;;5011164;28;20403;-91
2023/12/14 06:58:53;;;;;;;19.13;12.27;;;5.20;99.90;;;;;;5009582;28;20423;-91
2023/12/14 07:01:19;;;;;;;23.63;13.40;;;5.20;99.90;;;;;;5011428;28;20431;-91
2023/12/14 07:03:45;;;;;;;24.70;14.18;;;4.90;99.90;;;;;;5009307;28;20473;-92
2023/12/14 07:06:15;;;;;;;19.35;11.90;;;5.40;99.90;;;;;;5006954;28;20440;-92
2023/12/14 07:08:41;;;;;;;20.77;11.93;;;5.50;99.90;;;;;;5022689;28;20774;-90
2023/12/14 07:11:11;;;;;;;21.85;12.30;;;5.20;99.90;;;;;;5022795;28;20408;-92
2023/12/14 07:13:39;;;;;;;22.73;13.00;;;5.10;99.90;;;;;;5046639;28;20520;-92
2023/12/14 07:16:09;;;;;;;20.70;12.60;;;5.20;99.90;;;;;;5009647;28;20415;-91
2023/12/14 07:18:40;;;;;;;23.67;13.43;;;5.20;99.90;;;;;;5010802;28;20909;-92
2023/12/14 07:21:06;;;;;;;20.33;12.13;;;5.20;99.90;;;;;;5009345;28;20414;-92
2023/12/14 07:23:32;;;;;;;19.00;11.98;;;5.20;99.90;;;;;;5010845;28;20411;-91
2023/12/14 07:25:58;;;;;;;23.45;13.50;;;5.20;99.90;;;;;;5010345;28;20411;-91
2023/12/14 07:28:24;;;;;;;22.50;13.20;;;5.20;99.90;;;;;;5009778;28;20425;-92
2023/12/14 07:30:50;;;;;;;20.77;12.60;;;5.20;99.90;;;;;;5010180;28;20403;-91
2023/12/14 07:33:16;;;;;;;25.33;13.82;;;5.20;99.90;;;;;;5009637;28;20434;-92
2023/12/14 07:35:42;;;;;;;25.10;14.18;;;5.20;99.90;;;;;;5010387;28;20445;-92
2023/12/14 07:38:12;;;;;;;29.48;14.40;;;5.60;99.90;;;;;;5009003;28;20503;-92
2023/12/14 07:40:41;;;;;;;24.23;13.65;;;5.30;99.90;;;;;;5010358;28;20411;-92
2023/12/14 07:43:07;;;;;;;24.42;13.60;;;5.10;99.90;;;;;;5010252;28;20423;-91
2023/12/14 07:45:34;;;;;;;23.48;13.35;;;5.30;99.90;;;;;;5010418;28;20403;-91
2023/12/14 07:47:59;;;;;;;24.67;13.82;;;4.90;99.90;;;;;;5009953;28;20414;-91
2023/12/14 07:50:26;;;;;;;24.35;13.80;;;6.10;99.90;;;;;;5009452;28;20506;-91
2023/12/14 07:52:52;;;;;;;24.77;13.90;;;5.40;99.90;;;;;;5010180;28;20485;-92
2023/12/14 07:55:18;;;;;;;24.30;13.82;;;5.60;99.90;;;;;;5011292;28;20494;-93
2023/12/14 07:57:44;;;;;;;22.38;13.73;;;5.30;99.90;;;;;;5014811;28;20510;-92
2023/12/14 08:00:10;;;;;;;26.40;13.18;;;5.30;99.90;;;;;;5012784;28;20461;-91
2023/12/14 08:02:36;;;;;;;24.95;13.60;;;5.30;99.90;;;;;;5013514;28;20415;-92
2023/12/14 08:05:02;;;;;;;22.73;12.77;;;5.50;99.90;;;;;;5013561;28;20411;-90
2023/12/14 08:07:29;;;;;;;27.90;14.13;;;5.30;99.90;;;;;;5013079;28;20469;-93
2023/12/14 08:09:58;;;;;;;26.15;14.63;;;5.50;99.90;;;;;;5013458;28;20415;-91
2023/12/14 08:12:24;;;;;;;25.33;13.68;;;5.50;99.90;;;;;;5012583;28;20451;-92
2023/12/14 08:14:50;;;;;;;23.58;13.18;;;5.50;99.90;;;;;;5013961;28;20431;-91
2023/12/14 08:17:16;;;;;;;24.05;13.65;;;5.30;99.90;;;;;;5012731;28;20418;-91
2023/12/14 08:19:42;;;;;;;24.77;13.77;;;5.60;99.90;;;;;;5013362;28;20925;-91
2023/12/14 08:22:10;;;;;;;25.30;13.32;;;5.30;99.90;;;;;;5012745;28;20411;-92
2023/12/14 08:24:37;;;;;;;23.77;13.98;;;5.30;99.90;;;;;;5012731;28;20419;-92
2023/12/14 08:27:03;;;;;;;28.63;15.27;;;5.40;99.90;;;;;;5013393;28;20422;-92
2023/12/14 08:29:28;;;;;;;27.60;15.20;;;5.40;99.90;;;;;;5012003;28;20419;-92
2023/12/14 08:31:56;;;;;;;27.73;14.73;;;5.70;99.90;;;;;;5026803;28;20417;-92
2023/12/14 08:34:26;;;;;;;22.92;13.00;;;5.50;99.90;;;;;;5031770;28;20421;-91
2023/12/14 08:36:52;;;;;;;21.58;12.60;;;5.50;99.90;;;;;;5033613;28;20904;-92
2023/12/14 08:39:18;;;;;;;23.83;13.70;;;5.40;99.90;;;;;;5032025;28;20417;-91
2023/12/14 08:41:46;;;;;;;27.10;13.77;;;5.50;99.90;;;;;;5032311;28;20492;-91
2023/12/14 08:44:13;;;;;;;25.87;13.50;;;5.70;99.90;;;;;;5032547;28;20492;-91
2023/12/14 08:46:43;;;;;;;25.33;13.50;;;5.70;99.90;;;;;;5031513;28;20455;-93
2023/12/14 08:49:10;;;;;;;22.90;12.98;;;5.60;99.90;;;;;;5033303;28;20394;-92
2023/12/14 08:51:36;;;;;;;24.17;13.40;;;5.70;99.90;;;;;;5030995;28;20409;-92
2023/12/14 08:54:02;;;;;;;21.13;12.67;;;6.30;99.90;;;;;;5020776;28;20442;-92
2023/12/14 08:56:28;;;;;;;21.00;12.60;;;5.60;99.90;;;;;;5014930;28;20483;-92
2023/12/14 08:58:53;;;;;;;20.10;12.77;;;5.60;99.90;;;;;;5011724;28;20434;-93
2023/12/14 09:01:23;;;;;;;21.52;13.70;;;5.40;99.90;;;;;;5012196;28;20415;-92
2023/12/14 09:03:49;;;;;;;23.88;13.68;;;5.80;99.90;;;;;;5010421;28;20414;-93
2023/12/14 09:06:17;;;;;;;24.60;14.25;;;5.60;99.90;;;;;;5011932;28;20418;-92
2023/12/14 09:08:43;;;;;;;25.77;13.68;;;5.60;99.90;;;;;;5010877;28;20403;-92
2023/12/14 09:11:09;;;;;;;24.33;14.13;;;5.60;99.90;;;;;;5012534;28;20410;-93
2023/12/14 09:13:35;;;;;;;25.10;14.23;;;5.70;99.90;;;;;;5010903;28;20533;-93
2023/12/14 09:16:00;;;;;;;25.20;14.57;;;5.80;99.90;;;;;;5011554;28;20415;-93
2023/12/14 09:18:26;;;;;;;27.25;14.90;;;5.60;99.90;;;;;;5011434;28;20938;-93
2023/12/14 09:20:52;;;;;;;28.80;14.27;;;5.90;99.90;;;;;;5014549;28;20488;-93
2023/12/14 09:23:19;;;;;;;22.40;13.38;;;5.90;99.90;;;;;;5044269;28;20407;-94
2023/12/14 09:25:45;;;;;;;27.00;13.95;;;5.50;99.90;;;;;;5043615;28;20396;-93
2023/12/14 09:28:11;;;;;;;22.98;13.25;;;5.90;99.90;;;;;;5045014;28;20407;-92
2023/12/14 09:30:36;;;;;;;26.02;13.80;;;5.80;99.90;;;;;;5043690;28;20461;-94
2023/12/14 09:33:02;;;;;;;24.50;13.20;;;6.00;99.90;;;;;;5044683;28;20442;-93
2023/12/14 09:35:28;;;;;;;25.60;14.30;;;5.90;99.90;;;;;;5044253;28;20403;-92
2023/12/14 09:37:56;;;;;;;26.97;14.90;;;6.00;99.90;;;;;;5044463;28;20419;-95
2023/12/14 09:40:22;;;;;;;22.35;13.60;;;6.00;99.90;;;;;;5044793;28;20906;-91
2023/12/14 09:42:48;;;;;;;20.85;13.13;;;5.90;99.90;;;;;;5043794;28;20418;-93
2023/12/14 09:45:17;;;;;;;22.40;13.43;;;6.20;99.90;;;;;;5044904;28;20418;-92
2023/12/14 09:47:44;;;;;;;22.52;14.13;;;6.00;99.90;;;;;;5042863;28;20415;-92
2023/12/14 09:50:10;;;;;;;22.85;14.27;;;6.10;99.90;;;;;;5044810;28;20760;-94
2023/12/14 09:52:35;;;;;;;22.08;14.40;;;5.80;99.90;;;;;;5010628;28;21058;-93
2023/12/14 09:55:03;;;;;;;24.27;15.47;;;6.70;99.90;;;;;;5011069;28;20407;-92
2023/12/14 09:57:29;;;;;;;28.27;16.25;;;6.20;99.90;;;;;;5011057;28;20925;-93
2023/12/14 09:59:55;;;;;;;23.25;14.95;;;6.20;99.90;;;;;;5022821;28;20409;-94
2023/12/14 10:02:29;;;;;;;22.85;15.15;;;6.30;99.90;;;;;;5031232;28;20409;-93
2023/12/14 10:04:55;;;;;;;21.73;13.90;;;6.40;99.90;;;;;;5014408;28;20423;-92
2023/12/14 10:07:24;;;;;;;20.87;13.80;;;6.50;99.90;;;;;;5011730;28;20407;-94
2023/12/14 10:09:50;;;;;;;22.25;12.63;;;6.60;99.90;;;;;;5010831;28;20417;-92
2023/12/14 10:12:16;;;;;;;20.90;14.05;;;6.50;99.90;;;;;;5010410;28;20461;-92
2023/12/14 10:14:42;;;;;;;19.87;13.10;;;6.60;99.90;;;;;;5010539;28;20419;-92
2023/12/14 10:17:22;;;;;;;23.43;13.60;;;6.60;99.90;;;;;;5010146;28;20429;-93
2023/12/14 10:19:49;;;;;;;19.95;12.88;;;6.80;99.90;;;;;;5011132;28;20416;-92
2023/12/14 10:22:17;;;;;;;19.88;14.00;;;6.60;99.90;;;;;;5010096;28;20409;-93
2023/12/14 10:24:44;;;;;;;18.58;13.30;;;6.40;99.90;;;;;;5010643;28;20535;-93
2023/12/14 10:27:11;;;;;;;21.42;14.27;;;6.90;99.90;;;;;;5009640;28;20484;-92
2023/12/14 10:29:40;;;;;;;22.08;14.05;;;6.80;99.90;;;;;;5010459;28;20422;-93
2023/12/14 10:32:08;;;;;;;19.25;12.85;;;6.80;99.90;;;;;;5009516;28;20415;-91
2023/12/14 10:34:35;;;;;;;18.87;12.40;;;6.90;99.90;;;;;;5007260;28;20438;-93
2023/12/14 10:37:04;;;;;;;18.92;12.93;;;7.00;99.90;;;;;;5009428;28;20426;-96
2023/12/14 10:39:31;;;;;;;18.67;12.38;;;6.90;99.90;;;;;;5007314;28;20510;-93
2023/12/14 10:41:58;;;;;;;20.63;12.75;;;7.20;99.90;;;;;;5010137;28;20442;-93
2023/12/14 10:44:27;;;;;;;18.50;11.93;;;6.90;99.90;;;;;;5008347;28;20917;-93
2023/12/14 10:46:58;;;;;;;19.25;13.70;;;7.10;99.90;;;;;;5009039;28;20417;-93
2023/12/14 10:49:25;;;;;;;17.10;12.48;;;7.10;99.90;;;;;;5009090;28;20459;-94
2023/12/14 10:51:55;;;;;;;18.67;12.45;;;7.10;99.90;;;;;;5008766;28;20415;-95
2023/12/14 10:54:24;;;;;;;17.17;12.23;;;7.20;99.90;;;;;;5008673;28;20523;-93
2023/12/14 10:56:54;;;;;;;17.58;12.38;;;7.00;99.90;;;;;;5008229;28;20438;-94
2023/12/14 10:59:20;;;;;;;17.77;11.90;;;7.10;99.90;;;;;;5009529;28;20461;-93
2023/12/14 11:01:54;;;;;;;18.17;12.47;;;7.30;99.90;;;;;;5008481;28;20411;-94
2023/12/14 11:04:27;;;;;;;19.58;13.35;;;7.20;99.90;;;;;;5008751;28;21078;-95
2023/12/14 11:06:54;;;;;;;16.65;12.43;;;7.00;99.90;;;;;;5008960;28;20477;-94
2023/12/14 11:09:23;;;;;;;17.40;11.30;;;7.30;99.90;;;;;;5008516;28;20416;-95
2023/12/14 11:11:59;;;;;;;17.38;12.18;;;7.10;99.90;;;;;;5009907;28;20445;-94
2023/12/14 11:14:26;;;;;;;16.65;12.27;;;7.20;99.90;;;;;;5008691;28;20465;-95
2023/12/14 11:17:01;;;;;;;17.33;12.43;;;7.60;99.90;;;;;;5012229;28;20506;-94
2023/12/14 11:19:28;;;;;;;16.83;11.68;;;7.40;99.90;;;;;;5011755;28;20425;-94
2023/12/14 11:21:57;;;;;;;16.63;12.18;;;7.20;99.90;;;;;;5011402;28;20407;-93
2023/12/14 11:24:23;;;;;;;16.50;11.70;;;7.00;99.90;;;;;;5012524;28;20470;-94
2023/12/14 11:26:52;;;;;;;18.20;11.95;;;7.20;99.90;;;;;;5011934;28;20877;-94
2023/12/14 11:29:19;;;;;;;17.10;12.02;;;7.40;99.90;;;;;;5013589;28;20538;-94
2023/12/14 11:31:45;;;;;;;18.97;12.47;;;7.00;99.90;;;;;;5015343;28;20423;-95
2023/12/14 11:34:11;;;;;;;16.92;12.25;;;7.10;99.90;;;;;;5016737;28;20432;-95
2023/12/14 11:36:41;;;;;;;17.88;11.77;;;7.00;99.90;;;;;;5015920;28;20467;-93
2023/12/14 11:39:08;;;;;;;16.43;11.60;;;7.00;99.90;;;;;;5015904;28;20421;-95
2023/12/14 11:41:34;;;;;;;17.17;11.20;;;7.10;99.90;;;;;;5017089;28;20547;-94
2023/12/14 11:43:59;;;;;;;19.05;12.30;;;7.50;99.90;;;;;;5015555;28;21058;-94
2023/12/14 11:46:30;;;;;;;18.10;12.48;;;6.90;99.90;;;;;;5017509;28;20401;-93
2023/12/14 11:48:56;;;;;;;17.60;11.85;;;7.00;99.90;;;;;;5014946;28;20401;-92
2023/12/14 11:51:23;;;;;;;19.42;13.02;;;7.10;99.90;;;;;;5017355;28;20769;-93
2023/12/14 11:53:49;;;;;;;18.40;12.20;;;7.00;99.90;;;;;;5015914;28;20444;-93
2023/12/14 11:56:18;;;;;;;15.50;12.07;;;7.70;99.90;;;;;;5048411;28;20440;-93
2023/12/14 11:58:44;;;;;;;17.05;12.10;;;7.00;99.90;;;;;;5048906;28;20411;-92
2023/12/14 12:01:11;;;;;;;16.92;11.75;;;7.00;99.90;;;;;;5046376;28;20425;-92
2023/12/14 12:03:37;;;;;;;17.95;12.02;;;7.00;99.90;;;;;;5016778;28;20413;-91
2023/12/14 12:06:03;;;;;;;15.20;10.57;;;7.20;99.90;;;;;;5014994;28;20432;-92
2023/12/14 12:08:29;;;;;;;17.00;11.50;;;7.00;99.90;;;;;;5049626;28;20780;-92
2023/12/14 12:10:56;;;;;;;15.30;12.03;;;7.00;99.90;;;;;;5014998;28;20410;-92
2023/12/14 12:13:22;;;;;;;19.30;11.55;;;7.30;99.90;;;;;;5015631;28;20785;-90
2023/12/14 12:15:49;;;;;;;15.95;11.07;;;7.30;99.90;;;;;;5015818;28;20421;-91
2023/12/14 12:18:16;;;;;;;16.80;11.52;;;7.00;99.90;;;;;;5015458;28;20424;-92
2023/12/14 12:20:43;;;;;;;16.27;11.48;;;7.10;99.90;;;;;;5016386;28;20409;-89
2023/12/14 12:23:09;;;;;;;17.98;11.95;;;6.90;99.90;;;;;;5014839;28;20452;-93
2023/12/14 12:25:35;;;;;;;15.20;10.80;;;7.40;99.90;;;;;;5016623;28;20504;-92
2023/12/14 12:28:03;;;;;;;20.52;11.90;;;6.90;99.90;;;;;;5014293;28;20441;-91
2023/12/14 12:30:29;;;;;;;16.67;12.13;;;7.30;99.90;;;;;;5016100;28;20886;-91
2023/12/14 12:32:55;;;;;;;19.45;12.38;;;6.80;99.90;;;;;;5015242;28;20417;-92
2023/12/14 12:35:22;;;;;;;20.77;12.52;;;7.00;99.90;;;;;;5015474;28;20550;-91